Terminal Aerodrome Forecast
Issued by NWS

Home | Current Version | Previous Version | Text Only | Print | Product List | Glossary On
Versions: 1 2 3 4 5 6 7 8 9 10 11 12 13 14 15
307
FTUS44 KTSA 012334
TAFRVS
TAF
KRVS 012334Z 0200/0224 36011KT P6SM VCSH SCT050 BKN250
     FM020300 33007KT P6SM VCSH OVC100
     FM020900 35009KT P6SM OVC050
     FM021500 34008KT P6SM OVC025
     FM021800 34009KT P6SM OVC050=

USA.gov is the U.S. government's official web portal to all federal, state and local government web resources and services.